createdAt,value
2019-01-03T00:02:13.199Z,14.60
2019-01-03T00:04:43.624Z,19.53
2019-01-03T00:07:12.566Z,19.47
2019-01-03T00:09:43.285Z,17.87
2019-01-03T00:12:14.732Z,16.53
2019-01-03T00:14:45.346Z,18.63
2019-01-03T00:17:15.803Z,12.70
2019-01-03T00:19:46.259Z,27.30
2019-01-03T00:22:16.856Z,16.10
2019-01-03T00:24:47.534Z,22.17
2019-01-03T00:27:17.970Z,23.63
2019-01-03T00:29:48.416Z,15.63
2019-01-03T00:32:20.008Z,21.97
2019-01-03T00:34:50.420Z,16.40
2019-01-03T00:37:20.853Z,15.53
2019-01-03T00:39:51.277Z,26.07
2019-01-03T00:42:20.099Z,14.27
2019-01-03T00:44:51.185Z,17.77
2019-01-03T00:47:21.654Z,24.20
2019-01-03T00:49:52.223Z,18.93
2019-01-03T00:52:23.188Z,17.60
2019-01-03T00:54:53.653Z,15.47
2019-01-03T00:57:24.884Z,16.37
2019-01-03T00:59:55.384Z,15.10
2019-01-03T01:02:25.941Z,12.33
2019-01-03T01:04:54.794Z,19.73
2019-01-03T01:07:26.311Z,18.73
2019-01-03T01:09:57.396Z,16.53
2019-01-03T01:12:27.809Z,20.47
2019-01-03T01:14:56.646Z,11.57
2019-01-03T01:17:27.119Z,17.90
2019-01-03T01:19:58.117Z,17.43
2019-01-03T01:22:28.532Z,22.43
2019-01-03T01:24:58.934Z,17.60
2019-01-03T01:27:29.445Z,13.70
2019-01-03T01:29:59.897Z,8.93
2019-01-03T01:32:30.357Z,24.47
2019-01-03T01:34:59.142Z,24.13
2019-01-03T01:37:29.722Z,28.40
2019-01-03T01:40:01.665Z,11.00
2019-01-03T01:42:32.207Z,18.13
2019-01-03T01:45:02.625Z,16.93
2019-01-03T01:47:33.063Z,14.23
2019-01-03T01:50:03.517Z,21.00
2019-01-03T01:52:33.983Z,12.93
2019-01-03T01:55:04.348Z,14.20
2019-01-03T01:57:36.651Z,12.70
2019-01-03T02:00:08.386Z,17.67
2019-01-03T02:02:38.809Z,18.67
2019-01-03T02:05:09.380Z,14.47
2019-01-03T02:07:39.836Z,13.60
2019-01-03T02:10:10.734Z,22.47
2019-01-03T02:12:41.125Z,16.63
2019-01-03T02:15:11.521Z,16.30
2019-01-03T02:17:41.987Z,18.80
2019-01-03T02:20:12.426Z,19.60
2019-01-03T02:22:42.329Z,25.90
2019-01-03T02:25:12.834Z,22.03
2019-01-03T02:27:43.290Z,20.60
2019-01-03T02:30:14.209Z,26.30
2019-01-03T02:32:44.849Z,22.10
2019-01-03T02:35:15.313Z,29.07
2019-01-03T02:37:45.743Z,21.20
2019-01-03T02:40:16.168Z,22.40
2019-01-03T02:42:45.928Z,12.10
2019-01-03T02:45:16.486Z,25.27
2019-01-03T02:47:46.882Z,19.47
2019-01-03T02:50:17.420Z,15.40
2019-01-03T02:52:48.002Z,32.07
2019-01-03T02:55:19.818Z,22.97
2019-01-03T02:57:50.414Z,21.83
2019-01-03T03:00:20.813Z,19.33
2019-01-03T03:02:51.213Z,18.20
2019-01-03T03:05:21.658Z,12.20
2019-01-03T03:07:52.107Z,12.47
2019-01-03T03:10:22.612Z,28.63
2019-01-03T03:12:54.457Z,18.73
2019-01-03T03:15:24.914Z,16.57
2019-01-03T03:17:57.083Z,15.70
2019-01-03T03:20:27.616Z,19.03
2019-01-03T03:22:58.034Z,13.33
2019-01-03T03:25:28.605Z,14.47
2019-01-03T03:27:59.125Z,20.23
2019-01-03T03:30:29.700Z,26.40
2019-01-03T03:33:00.112Z,27.57
2019-01-03T03:35:30.537Z,21.43
2019-01-03T03:38:00.926Z,20.20
2019-01-03T03:40:31.580Z,35.77
2019-01-03T03:43:02.021Z,27.27
2019-01-03T03:45:32.445Z,12.40
2019-01-03T03:48:03.961Z,13.63
2019-01-03T03:50:33.948Z,14.50
2019-01-03T03:53:04.954Z,30.37
2019-01-03T03:55:36.787Z,17.77
2019-01-03T03:58:07.355Z,19.97
2019-01-03T04:00:37.880Z,21.60
2019-01-03T04:03:08.302Z,18.40
2019-01-03T04:05:38.732Z,11.60
2019-01-03T04:08:09.618Z,8.13
2019-01-03T04:10:40.106Z,10.63
2019-01-03T04:13:08.943Z,14.00
2019-01-03T04:15:39.355Z,24.13
2019-01-03T04:18:09.817Z,16.40
2019-01-03T04:20:40.218Z,21.33
2019-01-03T04:23:10.646Z,19.00
2019-01-03T04:25:41.051Z,22.13
2019-01-03T04:28:11.583Z,18.03
2019-01-03T04:30:42.251Z,13.70
2019-01-03T04:33:12.824Z,15.20
2019-01-03T04:35:43.260Z,24.53
2019-01-03T04:38:13.678Z,19.03
2019-01-03T04:40:43.492Z,13.13
2019-01-03T04:43:13.916Z,14.50
2019-01-03T04:45:44.357Z,23.10
2019-01-03T04:48:14.840Z,24.63
2019-01-03T04:50:46.272Z,20.30
2019-01-03T04:53:16.645Z,18.87
2019-01-03T04:55:47.214Z,23.80
2019-01-03T04:58:17.675Z,23.63
2019-01-03T05:00:46.485Z,10.80
2019-01-03T05:03:16.949Z,16.93
2019-01-03T05:05:47.472Z,17.83
2019-01-03T05:08:17.906Z,14.33
2019-01-03T05:10:57.295Z,22.03
2019-01-03T05:13:26.076Z,8.60
2019-01-03T05:15:56.462Z,8.00
2019-01-03T05:18:26.884Z,19.63
2019-01-03T05:20:57.273Z,11.40
2019-01-03T05:23:27.686Z,13.03
2019-01-03T05:25:58.165Z,12.00
2019-01-03T05:28:28.595Z,15.00
2019-01-03T05:30:59.286Z,15.80
2019-01-03T05:33:29.691Z,8.33
2019-01-03T05:36:00.211Z,13.83
2019-01-03T05:38:30.710Z,9.93
2019-01-03T05:41:01.139Z,15.50
2019-01-03T05:43:31.568Z,17.97
2019-01-03T05:46:02.111Z,17.70
2019-01-03T05:48:32.535Z,13.47
2019-01-03T05:51:02.915Z,31.67
2019-01-03T05:53:33.320Z,10.13
2019-01-03T05:56:03.808Z,20.60
2019-01-03T05:58:34.302Z,8.57
2019-01-03T06:01:04.834Z,7.07
2019-01-03T06:03:33.756Z,10.33
2019-01-03T06:06:04.204Z,4.27
2019-01-03T06:08:33.059Z,12.83
2019-01-03T06:11:03.457Z,10.03
2019-01-03T06:13:35.374Z,11.70
2019-01-03T06:16:05.896Z,11.00
2019-01-03T06:18:37.716Z,8.20
2019-01-03T06:21:08.138Z,7.40
2019-01-03T06:23:38.524Z,14.27
2019-01-03T06:26:09.125Z,11.60
2019-01-03T06:28:39.514Z,3.93
2019-01-03T06:31:10.495Z,4.67
2019-01-03T06:33:40.912Z,17.97
2019-01-03T06:36:11.306Z,8.57
2019-01-03T06:38:40.186Z,7.73
2019-01-03T06:41:10.615Z,12.60
2019-01-03T06:43:41.083Z,11.23
2019-01-03T06:46:11.456Z,16.80
2019-01-03T06:48:41.901Z,23.33
2019-01-03T06:51:12.292Z,19.30
2019-01-03T06:53:42.719Z,11.30
2019-01-03T06:56:13.188Z,6.53
2019-01-03T06:58:43.618Z,5.00
2019-01-03T07:01:14.090Z,11.83
2019-01-03T07:03:44.519Z,11.67
2019-01-03T07:06:14.945Z,7.93
2019-01-03T07:08:45.339Z,4.43
2019-01-03T07:11:15.742Z,4.90
2019-01-03T07:13:46.183Z,4.53
2019-01-03T07:16:16.594Z,9.60
2019-01-03T07:18:46.979Z,4.67
2019-01-03T07:21:18.880Z,6.00
2019-01-03T07:23:49.257Z,11.50
2019-01-03T07:26:19.687Z,15.70
2019-01-03T07:28:49.606Z,7.90
2019-01-03T07:31:20.299Z,7.63
2019-01-03T07:33:50.663Z,8.57
2019-01-03T07:36:21.121Z,21.13
2019-01-03T07:38:49.934Z,8.07
2019-01-03T07:41:20.764Z,13.03
2019-01-03T07:43:51.203Z,3.40
2019-01-03T07:46:23.201Z,7.20
2019-01-03T07:48:54.156Z,8.30
2019-01-03T07:51:25.307Z,13.70
2019-01-03T07:53:57.989Z,18.60
2019-01-03T07:56:28.568Z,4.33
2019-01-03T07:58:59.027Z,22.80
2019-01-03T08:01:29.519Z,8.67
2019-01-03T08:04:00.641Z,8.33
2019-01-03T08:06:31.112Z,4.17
2019-01-03T08:09:01.604Z,7.90
2019-01-03T08:11:32.087Z,14.27
2019-01-03T08:14:04.921Z,6.60
2019-01-03T08:16:33.688Z,11.83
2019-01-03T08:19:04.358Z,8.90
2019-01-03T08:21:34.767Z,5.07
2019-01-03T08:24:05.209Z,9.10
2019-01-03T08:26:35.766Z,17.47
2019-01-03T08:29:06.241Z,9.90
2019-01-03T08:31:36.862Z,17.27
2019-01-03T08:34:08.114Z,4.43
2019-01-03T08:36:38.534Z,21.03
2019-01-03T08:39:09.169Z,11.20
2019-01-03T08:41:39.593Z,9.17
2019-01-03T08:44:13.320Z,4.53
2019-01-03T08:46:45.338Z,7.80
2019-01-03T08:49:15.790Z,9.13
2019-01-03T08:51:47.052Z,20.20
2019-01-03T08:54:20.559Z,6.27
2019-01-03T08:56:50.978Z,8.50
2019-01-03T08:59:21.456Z,5.93
2019-01-03T09:01:51.952Z,5.67
2019-01-03T09:04:22.373Z,5.50
2019-01-03T09:06:54.998Z,9.03
2019-01-03T09:09:27.082Z,6.60
2019-01-03T09:11:57.714Z,4.63
2019-01-03T09:14:28.844Z,21.97
2019-01-03T09:16:59.303Z,12.93
2019-01-03T09:19:29.749Z,21.73
2019-01-03T09:22:00.606Z,26.40
2019-01-03T09:24:33.362Z,7.20
2019-01-03T09:27:05.475Z,11.77
2019-01-03T09:29:37.361Z,8.30
2019-01-03T09:32:10.760Z,9.13
2019-01-03T09:34:42.904Z,12.50
2019-01-03T09:37:13.406Z,3.90
2019-01-03T09:39:43.845Z,11.73
2019-01-03T09:42:13.720Z,7.23
2019-01-03T09:44:44.710Z,4.53
2019-01-03T09:47:14.150Z,5.53
2019-01-03T09:49:44.062Z,12.97
2019-01-03T09:52:12.970Z,6.03
2019-01-03T09:54:42.482Z,16.83
2019-01-03T09:57:11.324Z,8.57
2019-01-03T09:59:40.541Z,9.33
2019-01-03T10:02:12.348Z,5.40
2019-01-03T10:04:41.270Z,16.00
2019-01-03T10:07:10.161Z,8.90
2019-01-03T10:09:39.153Z,10.97
2019-01-03T10:12:09.033Z,10.07
2019-01-03T10:14:39.113Z,14.93
2019-01-03T10:17:08.329Z,2.77
2019-01-03T10:19:38.231Z,7.40
2019-01-03T10:22:09.621Z,9.70
2019-01-03T10:24:39.897Z,12.30
2019-01-03T10:27:08.840Z,7.63
2019-01-03T10:29:37.727Z,4.30
2019-01-03T10:32:06.632Z,3.63
2019-01-03T10:34:35.626Z,4.87
2019-01-03T10:37:06.175Z,4.30
2019-01-03T10:39:35.223Z,4.90
2019-01-03T10:42:04.134Z,6.33
2019-01-03T10:44:34.168Z,10.20
2019-01-03T10:47:03.502Z,3.10
2019-01-03T10:49:32.372Z,5.20
2019-01-03T10:52:02.775Z,8.33
2019-01-03T10:54:31.883Z,5.23
2019-01-03T10:57:02.049Z,7.70
2019-01-03T10:59:31.011Z,6.97
2019-01-03T11:02:00.069Z,4.03
2019-01-03T11:04:29.014Z,3.20
2019-01-03T11:06:57.942Z,6.90
2019-01-03T11:09:26.872Z,8.23
2019-01-03T11:11:55.743Z,3.87
2019-01-03T11:14:25.310Z,4.33
2019-01-03T11:16:54.320Z,4.87
2019-01-03T11:19:23.200Z,3.20
2019-01-03T11:21:54.474Z,8.63
2019-01-03T11:24:24.796Z,3.30
2019-01-03T11:26:55.092Z,7.93
2019-01-03T11:29:24.785Z,8.40
2019-01-03T11:31:53.829Z,8.10
2019-01-03T11:34:28.249Z,4.20
2019-01-03T11:36:57.735Z,5.90
2019-01-03T11:39:26.819Z,11.20
2019-01-03T11:41:57.503Z,5.67
2019-01-03T11:44:26.548Z,7.97
2019-01-03T11:46:55.641Z,4.90
2019-01-03T11:49:25.662Z,7.30
2019-01-03T11:51:56.002Z,4.97
2019-01-03T11:54:32.371Z,14.33
2019-01-03T11:57:02.441Z,10.67
2019-01-03T11:59:31.467Z,11.33
2019-01-03T12:02:00.286Z,5.80
2019-01-03T12:04:30.531Z,3.43
2019-01-03T12:07:00.730Z,6.60
2019-01-03T12:09:29.751Z,5.53
2019-01-03T12:11:58.604Z,4.93
2019-01-03T12:14:27.371Z,6.90
2019-01-03T12:16:56.497Z,8.37
2019-01-03T12:19:25.374Z,16.27
2019-01-03T12:21:54.254Z,12.63
2019-01-03T12:24:30.525Z,6.60
2019-01-03T12:26:56.610Z,9.83
2019-01-03T12:29:25.605Z,4.93
2019-01-03T12:31:54.565Z,10.93
2019-01-03T12:34:24.073Z,6.60
2019-01-03T12:36:53.660Z,6.50
2019-01-03T12:39:23.515Z,4.80
2019-01-03T12:41:53.468Z,4.23
2019-01-03T12:44:23.736Z,9.10
2019-01-03T12:46:52.703Z,6.00
2019-01-03T12:49:21.630Z,5.80
2019-01-03T12:51:50.753Z,6.70
2019-01-03T12:54:19.656Z,2.33
2019-01-03T12:56:49.194Z,4.40
2019-01-03T12:59:20.189Z,5.00
2019-01-03T13:01:51.950Z,3.20
2019-01-03T13:04:20.927Z,10.43
2019-01-03T13:06:49.885Z,7.33
2019-01-03T13:09:19.122Z,2.60
2019-01-03T13:11:48.366Z,6.90
2019-01-03T13:14:17.262Z,7.13
2019-01-03T13:16:46.367Z,6.30
2019-01-03T13:19:15.186Z,6.07
2019-01-03T13:21:44.424Z,9.70
2019-01-03T13:24:14.739Z,3.17
2019-01-03T13:26:43.603Z,5.33
2019-01-03T13:29:12.536Z,6.20
2019-01-03T13:31:41.558Z,5.60
2019-01-03T13:34:10.367Z,13.83
2019-01-03T13:36:40.621Z,4.33
2019-01-03T13:39:09.772Z,6.00
2019-01-03T13:41:38.771Z,9.07
2019-01-03T13:44:07.740Z,5.23
2019-01-03T13:46:36.607Z,9.83
2019-01-03T13:49:05.474Z,3.00
2019-01-03T13:51:34.521Z,2.40
2019-01-03T13:54:03.425Z,3.10
2019-01-03T13:56:32.363Z,6.20
2019-01-03T13:59:01.361Z,4.60
2019-01-03T14:01:30.414Z,8.73
2019-01-03T14:04:00.639Z,5.83
2019-01-03T14:06:29.446Z,2.37
2019-01-03T14:08:59.801Z,4.87
2019-01-03T14:11:30.577Z,11.33
2019-01-03T14:13:59.416Z,7.93
2019-01-03T14:16:28.326Z,4.50
2019-01-03T14:18:59.127Z,3.83
2019-01-03T14:21:29.547Z,8.83
2019-01-03T14:24:02.053Z,5.37
2019-01-03T14:26:31.284Z,2.00
2019-01-03T14:29:00.946Z,7.80
2019-01-03T14:31:31.253Z,5.13
2019-01-03T14:34:00.135Z,3.70
2019-01-03T14:36:29.166Z,20.23
2019-01-03T14:38:58.727Z,8.00
2019-01-03T14:41:29.228Z,6.10
2019-01-03T14:43:58.132Z,4.70
2019-01-03T14:46:27.135Z,6.23
2019-01-03T14:48:56.060Z,6.27
2019-01-03T14:51:25.076Z,7.00
2019-01-03T14:53:56.260Z,6.30
2019-01-03T14:56:25.193Z,9.27
2019-01-03T14:58:54.190Z,6.20
2019-01-03T15:01:23.177Z,12.40
2019-01-03T15:04:01.695Z,7.43
2019-01-03T15:06:32.099Z,14.07
2019-01-03T15:09:02.434Z,9.97
2019-01-03T15:11:33.059Z,6.87
2019-01-03T15:14:05.035Z,9.53
2019-01-03T15:16:34.221Z,3.77
2019-01-03T15:19:04.482Z,7.73
2019-01-03T15:21:39.508Z,7.97
2019-01-03T15:24:09.343Z,14.10
2019-01-03T15:26:45.751Z,13.83
2019-01-03T15:29:16.486Z,9.60
2019-01-03T15:31:46.963Z,6.13
2019-01-03T15:34:18.188Z,5.40
2019-01-03T15:36:49.701Z,2.97
2019-01-03T15:39:25.478Z,3.77
2019-01-03T15:41:55.560Z,4.73
2019-01-03T15:44:28.146Z,6.37
2019-01-03T15:46:57.118Z,19.73
2019-01-03T15:49:26.288Z,3.23
2019-01-03T15:51:58.431Z,6.13
2019-01-03T15:54:28.968Z,6.23
2019-01-03T15:56:59.182Z,8.30
2019-01-03T15:59:28.733Z,9.20
2019-01-03T16:01:57.988Z,9.17
2019-01-03T16:04:26.873Z,6.27
2019-01-03T16:06:55.676Z,21.70
2019-01-03T16:09:24.609Z,4.60
2019-01-03T16:11:53.601Z,11.40
2019-01-03T16:14:23.352Z,8.27
2019-01-03T16:16:54.334Z,9.73
2019-01-03T16:19:23.350Z,9.57
2019-01-03T16:21:52.319Z,7.87
2019-01-03T16:24:21.699Z,11.00
2019-01-03T16:26:51.435Z,9.20
2019-01-03T16:29:20.456Z,8.50
2019-01-03T16:31:49.948Z,12.67
2019-01-03T16:34:18.852Z,10.80
2019-01-03T16:36:47.754Z,10.67
2019-01-03T16:39:16.709Z,12.63
2019-01-03T16:41:45.616Z,10.10
2019-01-03T16:44:16.095Z,8.00
2019-01-03T16:46:44.886Z,8.60
2019-01-03T16:49:14.079Z,5.97
2019-01-03T16:51:43.087Z,7.17
2019-01-03T16:54:13.238Z,8.80
2019-01-03T16:56:42.190Z,9.47
2019-01-03T16:59:11.801Z,7.53
2019-01-03T17:01:40.804Z,9.53
2019-01-03T17:04:09.895Z,11.73
2019-01-03T17:06:41.441Z,8.00
2019-01-03T17:09:10.400Z,11.00
2019-01-03T17:11:39.358Z,9.20
2019-01-03T17:14:08.575Z,17.00
2019-01-03T17:16:37.551Z,13.10
2019-01-03T17:19:06.415Z,7.57
2019-01-03T17:21:35.951Z,15.00
2019-01-03T17:24:04.877Z,9.00
2019-01-03T17:26:35.314Z,16.37
2019-01-03T17:29:04.320Z,11.00
2019-01-03T17:31:33.559Z,10.97
2019-01-03T17:34:05.186Z,13.40
2019-01-03T17:36:34.250Z,12.57
2019-01-03T17:39:04.344Z,11.80
2019-01-03T17:41:33.233Z,10.83
2019-01-03T17:44:03.592Z,15.60
2019-01-03T17:46:32.470Z,12.97
2019-01-03T17:49:01.416Z,16.60
2019-01-03T17:51:31.206Z,11.43
2019-01-03T17:54:00.200Z,17.10
2019-01-03T17:56:30.544Z,13.00
2019-01-03T17:58:59.374Z,19.43
2019-01-03T18:01:28.325Z,13.00
2019-01-03T18:03:57.270Z,18.60
2019-01-03T18:06:26.191Z,22.10
2019-01-03T18:08:55.231Z,29.70
2019-01-03T18:11:24.113Z,30.00
2019-01-03T18:13:53.032Z,28.80
2019-01-03T18:16:22.044Z,34.43
2019-01-03T18:18:50.941Z,17.07
2019-01-03T18:21:19.887Z,27.83
2019-01-03T18:23:48.836Z,22.13
2019-01-03T18:26:18.555Z,27.17
2019-01-03T18:28:47.557Z,18.17
2019-01-03T18:31:19.762Z,21.50
2019-01-03T18:33:48.715Z,20.83
2019-01-03T18:36:20.398Z,13.33
2019-01-03T18:38:50.837Z,15.13
2019-01-03T18:41:20.031Z,11.20
2019-01-03T18:43:49.883Z,9.87
2019-01-03T18:46:20.054Z,13.50
2019-01-03T18:48:50.236Z,17.30
2019-01-03T18:51:20.682Z,18.83
2019-01-03T18:53:49.922Z,13.60
2019-01-03T18:56:19.995Z,21.93
2019-01-03T18:58:49.082Z,26.33
2019-01-03T19:01:17.994Z,13.53
2019-01-03T19:03:47.366Z,16.90
2019-01-03T19:06:18.564Z,18.37
2019-01-03T19:08:49.952Z,13.27
2019-01-03T19:11:19.831Z,11.73
2019-01-03T19:13:49.309Z,16.23
2019-01-03T19:16:19.770Z,24.90
2019-01-03T19:18:49.117Z,22.93
2019-01-03T19:24:09.587Z,18.07
2019-01-03T19:26:43.852Z,17.37
2019-01-03T19:29:15.712Z,17.33
2019-01-03T19:31:49.372Z,18.47
2019-01-03T19:34:16.788Z,23.00
2019-01-03T19:36:45.652Z,18.47
2019-01-03T19:39:14.595Z,16.33
2019-01-03T19:41:43.530Z,18.30
2019-01-03T19:44:13.698Z,29.80
2019-01-03T19:46:46.405Z,27.93
2019-01-03T19:49:15.425Z,37.10
2019-01-03T19:51:50.174Z,30.30
2019-01-03T19:54:22.442Z,27.23
2019-01-03T19:56:52.651Z,26.97
2019-01-03T19:59:21.555Z,24.63
2019-01-03T20:01:50.553Z,21.60
2019-01-03T20:04:19.508Z,20.87
2019-01-03T20:06:48.573Z,27.10
2019-01-03T20:09:17.369Z,22.00
2019-01-03T20:11:46.402Z,25.97
2019-01-03T20:14:15.407Z,24.07
2019-01-03T20:16:44.372Z,26.47
2019-01-03T20:19:13.286Z,27.77
2019-01-03T20:21:42.993Z,31.40
2019-01-03T20:24:11.878Z,23.17
2019-01-03T20:26:40.860Z,25.50
2019-01-03T20:29:09.948Z,30.40
2019-01-03T20:31:39.003Z,23.33
2019-01-03T20:34:14.400Z,26.07
2019-01-03T20:36:45.088Z,18.47
2019-01-03T20:39:14.178Z,20.10
2019-01-03T20:41:45.995Z,21.73
2019-01-03T20:44:15.090Z,15.97
2019-01-03T20:46:45.939Z,35.53
2019-01-03T20:49:14.892Z,26.87
2019-01-03T20:51:45.221Z,21.23
2019-01-03T20:54:14.337Z,15.00
2019-01-03T20:56:44.515Z,17.80
2019-01-03T20:59:15.551Z,23.47
2019-01-03T21:01:44.608Z,23.10
2019-01-03T21:04:14.994Z,19.20
2019-01-03T21:06:43.915Z,15.20
2019-01-03T21:09:12.964Z,17.53
2019-01-03T21:11:42.172Z,21.70
2019-01-03T21:14:11.097Z,17.03
2019-01-03T21:16:40.002Z,17.50
2019-01-03T21:19:08.973Z,17.80
2019-01-03T21:21:37.923Z,15.80
2019-01-03T21:24:09.945Z,19.90
2019-01-03T21:26:41.550Z,20.27
2019-01-03T21:29:10.527Z,15.17
2019-01-03T21:31:39.577Z,18.17
2019-01-03T21:34:09.420Z,25.17
2019-01-03T21:36:38.413Z,15.33
2019-01-03T21:39:07.960Z,14.07
2019-01-03T21:41:36.906Z,17.03
2019-01-03T21:44:05.778Z,14.13
2019-01-03T21:46:36.295Z,14.93
2019-01-03T21:49:05.309Z,18.93
2019-01-03T21:51:34.468Z,13.53
2019-01-03T21:54:04.000Z,21.80
2019-01-03T21:56:32.952Z,24.90
2019-01-03T21:59:01.935Z,21.63
2019-01-03T22:01:30.826Z,19.40
2019-01-03T22:04:01.928Z,13.73
2019-01-03T22:06:32.147Z,15.67
2019-01-03T22:09:01.039Z,16.07
2019-01-03T22:11:30.004Z,15.60
2019-01-03T22:14:00.476Z,19.03
2019-01-03T22:16:29.420Z,17.93
2019-01-03T22:18:58.410Z,21.00
2019-01-03T22:21:29.563Z,21.07
2019-01-03T22:23:58.730Z,17.53
2019-01-03T22:26:27.787Z,23.53
2019-01-03T22:28:56.689Z,24.33
2019-01-03T22:31:25.974Z,13.43
2019-01-03T22:33:54.938Z,18.73
2019-01-03T22:36:23.946Z,21.30
2019-01-03T22:38:52.920Z,25.63
2019-01-03T22:41:22.138Z,21.17
2019-01-03T22:43:51.162Z,25.80
2019-01-03T22:46:20.172Z,20.07
2019-01-03T22:48:49.065Z,20.13
2019-01-03T22:51:20.277Z,16.63
2019-01-03T22:53:49.703Z,29.97
2019-01-03T22:56:21.601Z,24.40
2019-01-03T22:58:51.810Z,27.83
2019-01-03T23:01:24.130Z,34.00
2019-01-03T23:03:54.526Z,30.53
2019-01-03T23:06:27.422Z,23.80
2019-01-03T23:09:01.064Z,27.10
2019-01-03T23:11:33.163Z,40.40
2019-01-03T23:14:02.213Z,34.27
2019-01-03T23:16:33.333Z,36.27
2019-01-03T23:19:02.338Z,29.93
2019-01-03T23:21:35.924Z,23.83
2019-01-03T23:24:05.403Z,25.50
2019-01-03T23:26:35.065Z,28.00
2019-01-03T23:29:03.998Z,39.27
2019-01-03T23:31:33.210Z,37.97
2019-01-03T23:34:02.098Z,33.40
2019-01-03T23:36:31.192Z,30.70
2019-01-03T23:39:00.097Z,41.97
2019-01-03T23:41:29.197Z,33.17
2019-01-03T23:43:58.124Z,33.80
2019-01-03T23:46:27.721Z,38.67
2019-01-03T23:48:57.186Z,30.33
2019-01-03T23:51:25.985Z,27.57
2019-01-03T23:53:56.353Z,42.93
2019-01-03T23:56:25.427Z,30.00
2019-01-03T23:58:54.503Z,40.73
